Latest Weather Observations for Argyle

IDD60801

Issued at 6:31 pm CST Tuesday 30 May 2017 (issued every 30 minutes, with the page automatically refreshed every 10 minutes)

About weather observations | Map of weather stations | Latest weather observations for NT | Other Formats
Station Details ID: 002064 Name: ARGYLE AERODROME Lat: -16.64 Lon: 128.45 Height: 164.0 m
Data from the previous 72 hours. | See also: Recent months at Argyle
Date/Time
CST
Temp
°C
App
Temp
°C
Dew
Point
°C
Rel
Hum
%
Delta-T
°C
Wind Press
QNH
hPa
Press
MSL
hPa
Rain since
9am
mm
Dir  Spd
km/h
Gust
km/h
Spd
kts
Gust
kts
30/06:00pm 27.8 23.8 2.9 20 12.4 E 13 19 7 10 1017.3 - 0.0
30/05:30pm 29.0 23.6 1.4 17 13.5 E 19 28 10 15 1016.8 - 0.0
30/05:00pm 30.0 24.4 0.9 15 14.2 E 20 32 11 17 1016.5 - 0.0
30/04:30pm 30.2 24.1 0.6 15 14.4 E 22 32 12 17 1016.7 1015.8 0.0
30/04:00pm 30.3 24.2 0.4 14 14.5 E 22 33 12 18 1016.8 - 0.0
30/03:30pm 30.8 24.7 0.4 14 14.8 E 22 30 12 16 1016.8 - 0.0
30/03:00pm 30.6 25.1 0.7 14 14.6 E 19 32 10 17 1017.0 - 0.0
30/02:30pm 30.4 25.4 1.4 15 14.3 E 17 24 9 13 1017.2 - 0.0
30/02:00pm 30.4 25.5 1.8 16 14.2 E 17 32 9 17 1017.5 - 0.0
30/01:30pm 29.8 25.2 1.6 16 13.9 ESE 15 22 8 12 1017.9 1017.1 0.0
30/01:00pm 28.5 23.6 2.2 18 13.0 E 17 28 9 15 1018.5 - 0.0
30/12:30pm 28.4 24.2 1.9 18 13.0 E 13 24 7 13 1019.2 - 0.0
30/12:00pm 27.9 23.8 2.0 19 12.7 E 13 20 7 11 1019.7 - 0.0
30/11:30am 26.0 21.9 2.0 21 11.6 E 13 19 7 10 1020.1 - 0.0
30/11:00am 25.4 20.8 1.5 21 11.4 SE 15 20 8 11 1020.5 - 0.0
30/10:30am 24.5 19.9 1.5 22 10.9 E 15 19 8 10 1020.7 1019.8 0.0
30/10:00am 23.4 19.7 2.2 25 10.1 ESE 11 15 6 8 1020.7 - 0.0
30/09:30am 22.7 19.0 2.6 26 9.6 SE 11 15 6 8 1020.4 - 0.0
30/09:00am 22.1 19.4 3.8 30 8.9 ESE 7 11 4 6 1020.2 - 0.0
30/08:30am 20.7 19.9 6.5 39 7.2 CALM 0 0 0 0 1020.1 - 0.0
30/08:00am 18.5 16.6 5.1 41 6.5 NNE 4 7 2 4 1019.8 - 0.0
30/07:30am 17.9 16.9 5.6 44 6.0 CALM 0 0 0 0 1019.4 1018.5 0.0
30/07:00am 18.7 16.3 4.3 38 6.9 WSW 6 7 3 4 1019.2 - 0.0
30/06:30am 18.1 15.3 5.1 42 6.3 W 9 11 5 6 1019.0 - 0.0
30/06:00am 18.3 15.4 4.9 41 6.5 WSW 9 11 5 6 1018.7 - 0.0
30/05:30am 17.8 14.9 4.7 42 6.3 WSW 9 11 5 6 1018.4 - 0.0
30/05:00am 19.0 17.6 5.3 40 6.7 NW 2 7 1 4 1018.4 - 0.0
30/04:30am 18.9 17.9 5.7 42 6.5 CALM 0 0 0 0 1018.3 1017.5 0.0
30/04:00am 19.0 17.1 5.1 40 6.8 WNW 4 6 2 3 1018.2 - 0.0
30/03:30am 18.6 16.2 5.3 41 6.5 W 7 7 4 4 1018.0 - 0.0
30/03:00am 19.4 18.4 5.4 40 6.9 CALM 0 0 0 0 1017.9 - 0.0
30/02:30am 20.8 19.2 4.7 34 7.9 NNE 2 9 1 5 1018.0 - 0.0
30/02:00am 19.9 17.6 4.7 36 7.4 N 6 9 3 5 1018.0 - 0.0
30/01:30am 19.5 17.1 5.3 39 7.0 E 7 11 4 6 1017.8 1017.0 0.0
30/01:00am 19.9 17.5 5.3 38 7.2 SE 7 11 4 6 1017.8 - 0.0
30/12:30am 20.1 17.5 5.9 39 7.1 ESE 9 11 5 6 1017.8 - 0.0
30/12:00am 20.7 18.1 6.0 38 7.4 E 9 13 5 7 1017.9 - 0.0
 
Date/Time
CST
Temp
°C
App
Temp
°C
Dew
Point
°C
Rel
Hum
%
Delta-T
°C
Wind Press
QNH
hPa
Press
MSL
hPa
Rain since
9am
mm
Dir  Spd
km/h
Gust
km/h
Spd
kts
Gust
kts
29/11:30pm 21.0 18.6 7.0 40 7.2 E 9 11 5 6 1018.0 - 0.0
29/11:00pm 22.0 19.4 6.3 36 8.0 E 9 11 5 6 1018.1 - 0.0
29/10:30pm 22.6 19.9 5.6 33 8.6 ESE 9 15 5 8 1017.9 1017.1 0.0
29/10:00pm 22.7 20.2 6.6 35 8.3 E 9 11 5 6 1017.6 - 0.0
29/09:00pm 23.4 21.4 6.9 34 8.6 E 7 11 4 6 1017.1 - 0.0
29/08:30pm 24.2 22.2 7.3 34 8.9 ESE 7 9 4 5 1016.8 - 0.0
29/08:00pm 25.0 23.1 7.5 32 9.3 ESE 7 9 4 5 1016.6 - 0.0
29/07:30pm 25.2 22.8 7.0 31 9.6 E 9 11 5 6 1016.2 1015.3 0.0
29/07:00pm 26.0 23.6 6.9 29 10.1 E 9 11 5 6 1016.0 - 0.0
29/06:30pm 26.9 24.6 7.3 29 10.5 E 9 11 5 6 1015.6 - 0.0
29/06:00pm 29.2 25.0 3.7 19 13.0 E 15 22 8 12 1015.3 - 0.0
29/05:30pm 30.5 25.8 2.9 17 14.0 E 17 26 9 14 1015.0 - 0.0
29/05:00pm 31.1 25.6 2.0 15 14.6 E 20 32 11 17 1014.7 - 0.0
29/04:30pm 31.5 26.2 3.2 16 14.5 ENE 20 30 11 16 1014.8 1013.9 0.0
29/04:00pm 31.4 25.7 3.0 16 14.5 E 22 35 12 19 1014.7 - 0.0
29/03:30pm 31.8 25.7 2.8 16 14.8 E 24 39 13 21 1014.7 - 0.0
29/03:00pm 31.9 27.0 5.2 18 14.2 ENE 20 32 11 17 1014.8 - 0.0
29/02:30pm 31.5 26.8 5.3 19 13.9 E 19 24 10 13 1015.0 - 0.0
29/02:00pm 31.1 25.8 4.8 19 13.8 E 22 32 12 17 1015.5 - 0.0
29/01:30pm 30.9 26.0 5.1 19 13.6 E 20 33 11 18 1016.0 1015.1 0.0
29/01:00pm 30.6 26.1 6.1 21 13.1 E 19 32 10 17 1016.4 - 0.0
29/12:30pm 30.1 25.9 7.3 24 12.4 E 19 28 10 15 1016.8 - 0.0
29/12:00pm 29.2 26.1 7.2 25 11.9 E 13 22 7 12 1017.2 - 0.0
29/11:30am 28.5 25.1 5.9 24 11.9 E 13 19 7 10 1017.5 - 0.0
29/11:00am 27.8 24.1 4.6 22 11.9 E 13 17 7 9 1017.5 - 0.0
29/10:30am 27.4 24.4 4.2 22 11.8 E 9 15 5 8 1017.5 1016.7 0.0
29/10:00am 27.2 24.6 4.1 22 11.7 ENE 7 13 4 7 1017.1 - 0.0
29/09:30am 25.9 23.6 4.6 25 10.8 SE 6 9 3 5 1017.0 - 0.0
29/09:00am 24.3 23.0 6.1 31 9.4 N 2 6 1 3 1017.0 - 0.0
29/08:30am 23.8 21.6 5.2 30 9.4 N 6 7 3 4 1016.6 - 0.0
29/08:00am 21.9 21.5 8.3 41 7.2 CALM 0 0 0 0 1016.1 - 0.0
29/07:30am 21.9 21.0 5.9 35 8.1 CALM 0 6 0 3 1015.6 1014.7 0.0
29/07:00am 22.3 20.0 4.8 32 8.7 N 6 7 3 4 1015.4 - 0.0
29/06:30am 21.9 21.3 7.5 39 7.5 CALM 0 0 0 0 1015.0 - 0.0
29/06:00am 22.3 20.4 5.1 32 8.6 W 4 7 2 4 1014.9 - 0.0
29/05:30am 22.3 20.4 6.5 36 8.1 SW 6 7 3 4 1014.7 - 0.0
29/05:00am 22.0 21.4 7.2 38 7.7 CALM 0 0 0 0 1015.1 - 0.0
29/04:30am 22.4 21.6 6.4 35 8.2 CALM 0 0 0 0 1014.7 1013.8 0.0
29/04:00am 22.1 21.5 7.6 39 7.6 CALM 0 0 0 0 1014.6 - 0.0
29/03:30am 22.6 22.1 7.8 38 7.8 CALM 0 0 0 0 1014.6 - 0.0
29/03:00am 22.7 20.8 6.6 35 8.3 W 6 7 3 4 1014.8 - 0.0
29/02:30am 22.7 20.7 7.2 36 8.1 E 7 9 4 5 1014.9 - 0.0
29/02:00am 22.9 20.5 6.9 35 8.3 E 9 11 5 6 1015.2 - 0.0
29/01:30am 23.2 20.8 7.1 35 8.4 ESE 9 9 5 5 1015.2 - 0.0
29/01:00am 23.6 21.5 6.6 33 8.8 E 7 9 4 5 1015.3 - 0.0
29/12:30am 23.8 21.9 6.7 33 8.9 SE 6 6 3 3 1015.4 - 0.0
29/12:00am 24.7 22.7 6.2 30 9.6 SSE 6 7 3 4 1015.4 - 0.0
 
Date/Time
CST
Temp
°C
App
Temp
°C
Dew
Point
°C
Rel
Hum
%
Delta-T
°C
Wind Press
QNH
hPa
Press
MSL
hPa
Rain since
9am
mm
Dir  Spd
km/h
Gust
km/h
Spd
kts
Gust
kts
28/11:30pm 25.7 23.3 5.2 26 10.5 S 7 9 4 5 1015.5 - 0.0
28/10:30pm 26.0 24.2 7.2 30 10.0 ESE 6 7 3 4 1015.5 1014.6 0.0
28/10:00pm 25.7 23.9 7.0 30 9.9 E 6 7 3 4 1015.5 - 0.0
28/09:30pm 25.9 24.3 8.6 33 9.4 E 7 9 4 5 1015.6 - 0.0
28/09:00pm 26.2 24.4 7.8 31 9.9 SE 7 9 4 5 1015.5 - 0.0
28/08:30pm 26.6 24.9 8.2 31 10.0 SSE 7 7 4 4 1015.3 - 0.0
28/08:00pm 26.6 24.9 8.4 31 9.9 SE 7 9 4 5 1014.8 - 0.0
28/07:30pm 26.6 25.1 9.2 33 9.6 ESE 7 9 4 5 1014.6 1013.7 0.0
28/07:00pm 27.2 25.6 8.6 31 10.2 ESE 7 9 4 5 1014.4 - 0.0
28/06:30pm 27.8 26.5 9.8 32 10.1 E 7 9 4 5 1014.1 - 0.0
28/06:00pm 29.4 27.6 7.9 26 11.8 E 7 11 4 6 1013.8 - 0.0
28/05:00pm 30.0 27.8 6.3 22 12.7 E 7 11 4 6 1013.3 - 0.0
28/04:30pm 30.2 28.0 6.4 22 12.8 E 7 11 4 6 1013.2 - 0.0
28/04:00pm 30.5 27.4 5.7 21 13.2 E 11 19 6 10 1013.3 - 0.0
28/03:30pm 30.5 27.0 5.3 20 13.3 E 13 19 7 10 1013.6 - 0.0
28/03:00pm 30.9 26.2 3.4 17 14.1 E 17 26 9 14 1013.8 - 0.0
28/02:30pm 31.4 40.1 31.4 100 0.0 E 13 22 7 12 1014.2 - 0.0
28/02:00pm 31.1 39.2 31.1 100 0.0 E 15 24 8 13 1014.4 - 0.0
28/01:30pm 30.6 39.8 30.6 100 0.0 E 7 13 4 7 1014.7 1013.8 0.0
28/01:00pm 30.5 39.2 30.5 100 0.0 E 9 19 5 10 1015.4 - 0.0
28/12:30pm 29.5 30.3 17.4 48 7.7 E 9 15 5 8 1016.0 - 0.0
28/12:00pm 28.6 25.9 5.8 23 12.0 ESE 9 13 5 7 1016.4 - 0.0
28/11:30am 27.9 25.0 4.5 22 12.0 E 9 17 5 9 1016.7 - 0.0
28/11:00am 27.1 23.8 4.6 23 11.5 E 11 17 6 9 1017.0 - 0.0
28/10:30am 26.2 23.2 3.9 23 11.2 ENE 9 15 5 8 1017.1 1016.3 0.0
28/10:00am 25.3 22.7 4.1 25 10.6 E 7 9 4 5 1017.4 - 0.0
28/09:30am 24.2 22.5 7.6 34 8.8 WNW 6 9 3 5 1017.4 - 0.0
28/09:00am 22.5 20.8 8.4 40 7.5 W 7 7 4 4 1017.0 - 0.0
28/08:30am 22.0 19.9 6.6 37 7.9 NW 7 11 4 6 1016.5 - 0.0
28/08:00am 20.9 18.8 6.8 40 7.2 WNW 7 9 4 5 1016.0 - 0.0
28/07:30am 19.1 16.7 7.1 45 6.1 W 9 9 5 5 1015.8 1014.9 0.0
28/07:00am 20.0 17.8 6.3 41 6.9 W 7 7 4 4 1015.3 - 0.0
28/06:30am 19.2 16.7 6.5 43 6.4 W 9 11 5 6 1015.1 - 0.0
28/06:28am 19.2 16.7 6.5 43 6.4 W 9 11 5 6 1015.1 - 0.0
28/06:16am 19.6 17.4 6.0 41 6.8 W 7 9 4 5 1015.0 - 0.0
28/06:00am 19.5 17.4 6.7 43 6.5 W 7 11 4 6 1014.8 - 0.0
28/05:30am 19.3 16.9 7.1 45 6.2 W 9 11 5 6 1014.8 - 0.0
28/05:00am 19.7 17.5 6.4 42 6.7 W 7 9 4 5 1014.9 - 0.0
28/04:30am 21.2 19.9 5.9 37 7.7 WSW 2 7 1 4 1014.7 1013.8 0.0
28/04:00am 21.3 19.6 6.1 37 7.7 WNW 4 7 2 4 1014.9 - 0.0
28/02:00am 19.3 19.0 8.6 50 5.6 CALM 0 6 0 3 1015.2 - 0.0
28/01:30am 22.0 19.1 6.3 36 8.0 ESE 11 13 6 7 1015.3 - 0.0
28/01:00am 21.7 19.8 7.5 40 7.4 ESE 7 11 4 6 1015.6 - 0.0
28/12:30am 21.6 19.8 7.9 41 7.2 ESE 7 9 4 5 1015.6 - 0.0
 
Date/Time
CST
Temp
°C
App
Temp
°C
Dew
Point
°C
Rel
Hum
%
Delta-T
°C
Wind Press
QNH
hPa
Press
MSL
hPa
Rain since
9am
mm
Dir  Spd
km/h
Gust
km/h
Spd
kts
Gust
kts
27/11:30pm 22.8 20.5 7.6 37 8.0 E 9 9 5 5 1016.0 - 0.0
27/11:00pm 22.9 20.8 8.2 39 7.8 E 9 11 5 6 1015.9 - 0.0
27/10:30pm 23.7 22.3 8.7 38 8.1 S 6 7 3 4 1015.9 - 0.0
27/10:00pm 22.7 21.2 8.4 40 7.6 SW 6 6 3 3 1015.8 - 0.0
27/09:30pm 24.6 22.5 8.2 35 8.8 ESE 9 11 5 6 1015.5 - 0.0

Other Formats:

Comma delimited format used in spreadsheet applications
http://www.bom.gov.au/fwo/IDD60801/IDD60801.94217.axf

JavaScript Object Notation format (JSON) in row-major order
http://www.bom.gov.au/fwo/IDD60801/IDD60801.94217.json